Detall de PIREP

Printer-friendly versionPDF version

[2015/12/05 07:43:00]
Flight IATA:CT2110
Pilot Number:041
Company ICAO:CAT
Aircraft Type:BE58/A
PAX:3
Departing Airport: LEVC
Destination Airport: LEST
Alternate Airport:LEMD
Online: VATSIM
Route:CENTA A33 FORNO
Flight Level:FL150
No Slew and time accel
No pause
Crash detect
Detect pilot in Cockpit between each 30 and 45 minutes
07:43 Zero fuel Weight: 4592 Lbs, Fuel Weight: 850 Lbs
07:43 VATSIM:LEVC 050700Z 27003KT 8000 FEW014 05/04 Q1033 NOSIG
07:43 VATSIM:LEST 050700Z VRB01KT 0400 0250N R17/0750N R35/0450D FG VV001 08/08 Q1031 NOSIG
07:43 VOICE CATALONIAN
07:45 Parking Brakes off
07:50 Take-off
07:50 Take off Weight: 5439 Lbs
07:50 Wind: 273º @ 002 Knots Heading: 294º
07:50 POS N39º 29´ 18´´ W000º 28´ 44´´
07:50 Gear Up: 117 Knots
07:50 Flaps:1 at 117 Knots
07:51 Flaps:0 at 128 Knots
08:05 Wind:285º@012 Knots Heading: 298º Ground Speed: 168 Knots Altitude 13592 ft
08:07 TOC
08:07 Fuel Weight: 784 Lb
08:20 Wind:311º@026 Knots Heading: 300º Ground Speed: 182 Knots Altitude 15597 ft
08:35 Wind:311º@014 Knots Heading: 298º Ground Speed: 197 Knots Altitude 15606 ft
08:50 Wind:312º@013 Knots Heading: 297º Ground Speed: 195 Knots Altitude 15597 ft
09:05 Wind:277º@033 Knots Heading: 293º Ground Speed: 178 Knots Altitude 15597 ft
09:20 Wind:285º@021 Knots Heading: 302º Ground Speed: 188 Knots Altitude 15587 ft
09:35 Wind:279º@031 Knots Heading: 300º Ground Speed: 185 Knots Altitude 15554 ft
09:44 TOD
09:44 Fuel Weight: 429 Lb
09:50 Wind:262º@019 Knots Heading: 299º Ground Speed: 185 Knots Altitude 10062 ft
10:05 Wind:069º@001 Knots Heading: 306º Ground Speed: 180 Knots Altitude 4019 ft
10:14 Flaps:1 at 138 Knots
10:16 Gear Down: 105 Knots
10:16 Flaps:2 at 105 Knots
10:19 TouchDown:Rate -179 ft/min Speed: 84 Knots
10:19 Flaps:0 at 72 Knots
10:19 VATSIM:LEST 051000Z VRB02KT 0200 R17/1800D R35/0275N BCFG VV001 10/10 Q1031 TEMPO 3000 SCT001
10:19 Land
10:19 Wind:076º@001 Knots
10:19 Heading: 167º
10:19 Flight Duration: 02:29
10:19 Landing Weight: 4934 Lbs
10:19 POS N42º 54´ 07´´ W008º 25´ 01´´
10:21 Parking brakes on
10:21 Block to Block Duration: 02:36
10:21 Final Fuel: 341 Lbls
10:21 Spent Fuel: 509 Lbls
10:21 Flight Length: 444 NM
10:21 TOD Land Length: 97 NM

Exportar CSV

Powered by Drupal - Modified by Danger4k